sensor_id;sensor_type;location;lat;lon;timestamp;P1;durP1;ratioP1;P2;durP2;ratioP2
23418;SDS011;11882;42.522;27.458;2024-02-23T00:01:41;13.60;;;10.23;;
23418;SDS011;11882;42.522;27.458;2024-02-23T00:04:08;12.97;;;9.07;;
23418;SDS011;11882;42.522;27.458;2024-02-23T00:06:37;10.53;;;8.50;;
23418;SDS011;11882;42.522;27.458;2024-02-23T00:09:04;15.10;;;9.83;;
23418;SDS011;11882;42.522;27.458;2024-02-23T00:11:31;13.90;;;8.60;;
23418;SDS011;11882;42.522;27.458;2024-02-23T00:13:59;11.57;;;8.80;;
23418;SDS011;11882;42.522;27.458;2024-02-23T00:16:26;13.33;;;10.37;;
23418;SDS011;11882;42.522;27.458;2024-02-23T00:18:54;18.10;;;11.63;;
23418;SDS011;11882;42.522;27.458;2024-02-23T00:21:21;15.10;;;9.93;;
23418;SDS011;11882;42.522;27.458;2024-02-23T00:23:51;14.27;;;9.03;;
23418;SDS011;11882;42.522;27.458;2024-02-23T00:26:18;11.23;;;8.93;;
23418;SDS011;11882;42.522;27.458;2024-02-23T00:28:45;16.97;;;11.53;;
23418;SDS011;11882;42.522;27.458;2024-02-23T00:31:12;14.57;;;11.07;;
23418;SDS011;11882;42.522;27.458;2024-02-23T00:33:39;15.57;;;10.17;;
23418;SDS011;11882;42.522;27.458;2024-02-23T00:36:07;12.77;;;9.93;;
23418;SDS011;11882;42.522;27.458;2024-02-23T00:38:34;15.87;;;9.33;;
23418;SDS011;11882;42.522;27.458;2024-02-23T00:41:03;13.87;;;9.47;;
23418;SDS011;11882;42.522;27.458;2024-02-23T00:43:37;15.53;;;10.83;;
23418;SDS011;11882;42.522;27.458;2024-02-23T00:46:04;15.77;;;10.60;;
23418;SDS011;11882;42.522;27.458;2024-02-23T00:48:31;11.93;;;8.83;;
23418;SDS011;11882;42.522;27.458;2024-02-23T00:50:59;13.93;;;9.33;;
23418;SDS011;11882;42.522;27.458;2024-02-23T00:53:26;16.03;;;10.13;;
23418;SDS011;11882;42.522;27.458;2024-02-23T00:55:54;14.20;;;8.87;;
23418;SDS011;11882;42.522;27.458;2024-02-23T00:58:22;10.73;;;7.43;;
23418;SDS011;11882;42.522;27.458;2024-02-23T01:00:50;13.27;;;8.93;;
23418;SDS011;11882;42.522;27.458;2024-02-23T01:03:17;13.70;;;8.60;;
23418;SDS011;11882;42.522;27.458;2024-02-23T01:05:44;11.50;;;8.43;;
23418;SDS011;11882;42.522;27.458;2024-02-23T01:08:11;13.77;;;10.07;;
23418;SDS011;11882;42.522;27.458;2024-02-23T01:10:38;11.57;;;8.30;;
23418;SDS011;11882;42.522;27.458;2024-02-23T01:13:05;13.10;;;8.43;;
23418;SDS011;11882;42.522;27.458;2024-02-23T01:15:34;15.60;;;8.83;;
23418;SDS011;11882;42.522;27.458;2024-02-23T01:18:01;11.57;;;8.27;;
23418;SDS011;11882;42.522;27.458;2024-02-23T01:20:31;14.20;;;9.57;;
23418;SDS011;11882;42.522;27.458;2024-02-23T01:22:58;16.90;;;11.00;;
23418;SDS011;11882;42.522;27.458;2024-02-23T01:25:25;11.43;;;8.43;;
23418;SDS011;11882;42.522;27.458;2024-02-23T01:27:52;13.00;;;9.10;;
23418;SDS011;11882;42.522;27.458;2024-02-23T01:30:19;11.97;;;8.57;;
23418;SDS011;11882;42.522;27.458;2024-02-23T01:32:48;19.93;;;9.97;;
23418;SDS011;11882;42.522;27.458;2024-02-23T01:35:16;12.07;;;8.77;;
23418;SDS011;11882;42.522;27.458;2024-02-23T01:37:43;20.43;;;8.60;;
23418;SDS011;11882;42.522;27.458;2024-02-23T01:40:10;13.00;;;7.93;;
23418;SDS011;11882;42.522;27.458;2024-02-23T01:42:37;13.27;;;8.07;;
23418;SDS011;11882;42.522;27.458;2024-02-23T01:45:05;9.87;;;7.70;;
23418;SDS011;11882;42.522;27.458;2024-02-23T01:47:33;13.77;;;8.87;;
23418;SDS011;11882;42.522;27.458;2024-02-23T01:50:02;15.47;;;8.80;;
23418;SDS011;11882;42.522;27.458;2024-02-23T01:52:30;14.37;;;9.63;;
23418;SDS011;11882;42.522;27.458;2024-02-23T01:54:57;14.17;;;9.43;;
23418;SDS011;11882;42.522;27.458;2024-02-23T01:57:26;12.83;;;9.47;;
23418;SDS011;11882;42.522;27.458;2024-02-23T01:59:54;11.00;;;9.07;;
23418;SDS011;11882;42.522;27.458;2024-02-23T02:02:21;15.27;;;8.00;;
23418;SDS011;11882;42.522;27.458;2024-02-23T02:04:49;10.60;;;8.43;;
23418;SDS011;11882;42.522;27.458;2024-02-23T02:07:17;13.17;;;8.73;;
23418;SDS011;11882;42.522;27.458;2024-02-23T02:10:02;12.27;;;7.77;;
23418;SDS011;11882;42.522;27.458;2024-02-23T02:12:30;17.07;;;9.03;;
23418;SDS011;11882;42.522;27.458;2024-02-23T02:14:57;8.87;;;7.10;;
23418;SDS011;11882;42.522;27.458;2024-02-23T02:17:26;9.87;;;7.67;;
23418;SDS011;11882;42.522;27.458;2024-02-23T02:19:54;8.27;;;6.50;;
23418;SDS011;11882;42.522;27.458;2024-02-23T02:22:23;11.87;;;7.97;;
23418;SDS011;11882;42.522;27.458;2024-02-23T02:24:50;12.43;;;8.43;;
23418;SDS011;11882;42.522;27.458;2024-02-23T02:27:17;9.73;;;7.37;;
23418;SDS011;11882;42.522;27.458;2024-02-23T02:29:44;10.27;;;7.70;;
23418;SDS011;11882;42.522;27.458;2024-02-23T02:32:11;11.70;;;7.90;;
23418;SDS011;11882;42.522;27.458;2024-02-23T02:34:39;11.60;;;7.97;;
23418;SDS011;11882;42.522;27.458;2024-02-23T02:37:06;15.80;;;7.80;;
23418;SDS011;11882;42.522;27.458;2024-02-23T02:39:35;12.13;;;7.67;;
23418;SDS011;11882;42.522;27.458;2024-02-23T02:42:02;8.53;;;6.23;;
23418;SDS011;11882;42.522;27.458;2024-02-23T02:44:30;11.20;;;6.57;;
23418;SDS011;11882;42.522;27.458;2024-02-23T02:46:57;9.97;;;7.23;;
23418;SDS011;11882;42.522;27.458;2024-02-23T02:49:24;8.60;;;7.03;;
23418;SDS011;11882;42.522;27.458;2024-02-23T02:51:52;10.67;;;7.27;;
23418;SDS011;11882;42.522;27.458;2024-02-23T02:54:19;10.60;;;8.20;;
23418;SDS011;11882;42.522;27.458;2024-02-23T02:56:48;12.10;;;7.97;;
23418;SDS011;11882;42.522;27.458;2024-02-23T02:59:19;12.97;;;7.20;;
23418;SDS011;11882;42.522;27.458;2024-02-23T03:01:46;12.13;;;9.10;;
23418;SDS011;11882;42.522;27.458;2024-02-23T03:04:13;9.30;;;6.90;;
23418;SDS011;11882;42.522;27.458;2024-02-23T03:06:40;14.43;;;9.33;;
23418;SDS011;11882;42.522;27.458;2024-02-23T03:09:08;10.03;;;6.77;;
23418;SDS011;11882;42.522;27.458;2024-02-23T03:11:35;10.03;;;7.53;;
23418;SDS011;11882;42.522;27.458;2024-02-23T03:14:04;12.50;;;8.47;;
23418;SDS011;11882;42.522;27.458;2024-02-23T03:16:31;12.47;;;6.43;;
23418;SDS011;11882;42.522;27.458;2024-02-23T03:18:59;9.93;;;7.07;;
23418;SDS011;11882;42.522;27.458;2024-02-23T03:21:26;9.97;;;7.10;;
23418;SDS011;11882;42.522;27.458;2024-02-23T03:23:53;8.53;;;6.87;;
23418;SDS011;11882;42.522;27.458;2024-02-23T03:26:21;14.93;;;8.40;;
23418;SDS011;11882;42.522;27.458;2024-02-23T03:28:48;8.57;;;6.43;;
23418;SDS011;11882;42.522;27.458;2024-02-23T03:31:16;10.27;;;6.83;;
23418;SDS011;11882;42.522;27.458;2024-02-23T03:33:44;12.93;;;7.90;;
23418;SDS011;11882;42.522;27.458;2024-02-23T03:36:11;14.50;;;9.37;;
23418;SDS011;11882;42.522;27.458;2024-02-23T03:38:38;14.13;;;7.80;;
23418;SDS011;11882;42.522;27.458;2024-02-23T03:41:05;9.70;;;7.27;;
23418;SDS011;11882;42.522;27.458;2024-02-23T03:43:32;11.37;;;7.43;;
23418;SDS011;11882;42.522;27.458;2024-02-23T03:46:00;11.87;;;7.77;;
23418;SDS011;11882;42.522;27.458;2024-02-23T03:48:28;11.57;;;9.30;;
23418;SDS011;11882;42.522;27.458;2024-02-23T03:50:55;12.40;;;8.47;;
23418;SDS011;11882;42.522;27.458;2024-02-23T03:53:23;14.53;;;9.67;;
23418;SDS011;11882;42.522;27.458;2024-02-23T03:55:50;10.90;;;8.37;;
23418;SDS011;11882;42.522;27.458;2024-02-23T03:58:17;12.80;;;9.03;;
23418;SDS011;11882;42.522;27.458;2024-02-23T04:00:44;16.00;;;9.23;;
23418;SDS011;11882;42.522;27.458;2024-02-23T04:03:11;14.13;;;8.03;;
23418;SDS011;11882;42.522;27.458;2024-02-23T04:05:40;15.57;;;8.43;;
23418;SDS011;11882;42.522;27.458;2024-02-23T04:08:07;12.77;;;9.17;;
23418;SDS011;11882;42.522;27.458;2024-02-23T04:10:34;8.90;;;7.83;;
23418;SDS011;11882;42.522;27.458;2024-02-23T04:13:02;10.30;;;7.67;;
23418;SDS011;11882;42.522;27.458;2024-02-23T04:15:29;10.67;;;8.07;;
23418;SDS011;11882;42.522;27.458;2024-02-23T04:17:56;12.70;;;9.33;;
23418;SDS011;11882;42.522;27.458;2024-02-23T04:20:23;11.43;;;8.03;;
23418;SDS011;11882;42.522;27.458;2024-02-23T04:22:52;11.33;;;8.20;;
23418;SDS011;11882;42.522;27.458;2024-02-23T04:25:19;12.50;;;7.80;;
23418;SDS011;11882;42.522;27.458;2024-02-23T04:27:46;13.00;;;9.53;;
23418;SDS011;11882;42.522;27.458;2024-02-23T04:30:14;13.10;;;9.07;;
23418;SDS011;11882;42.522;27.458;2024-02-23T04:32:41;9.17;;;7.20;;
23418;SDS011;11882;42.522;27.458;2024-02-23T04:35:09;11.90;;;8.90;;
23418;SDS011;11882;42.522;27.458;2024-02-23T04:37:36;17.43;;;7.73;;
23418;SDS011;11882;42.522;27.458;2024-02-23T04:40:06;11.43;;;8.43;;
23418;SDS011;11882;42.522;27.458;2024-02-23T04:42:33;21.93;;;9.50;;
23418;SDS011;11882;42.522;27.458;2024-02-23T04:45:00;16.47;;;9.40;;
23418;SDS011;11882;42.522;27.458;2024-02-23T04:47:27;14.57;;;9.23;;
23418;SDS011;11882;42.522;27.458;2024-02-23T04:49:54;12.80;;;9.23;;
23418;SDS011;11882;42.522;27.458;2024-02-23T04:52:21;11.93;;;7.97;;
23418;SDS011;11882;42.522;27.458;2024-02-23T04:54:48;11.30;;;8.67;;
23418;SDS011;11882;42.522;27.458;2024-02-23T04:57:18;12.43;;;9.07;;
23418;SDS011;11882;42.522;27.458;2024-02-23T04:59:45;11.83;;;7.90;;
23418;SDS011;11882;42.522;27.458;2024-02-23T05:02:12;12.47;;;8.63;;
23418;SDS011;11882;42.522;27.458;2024-02-23T05:04:39;11.73;;;8.63;;
23418;SDS011;11882;42.522;27.458;2024-02-23T05:07:07;11.70;;;7.97;;
23418;SDS011;11882;42.522;27.458;2024-02-23T05:09:34;10.40;;;8.07;;
23418;SDS011;11882;42.522;27.458;2024-02-23T05:12:01;16.67;;;8.13;;
23418;SDS011;11882;42.522;27.458;2024-02-23T05:14:30;16.57;;;8.73;;
23418;SDS011;11882;42.522;27.458;2024-02-23T05:16:57;15.60;;;9.10;;
23418;SDS011;11882;42.522;27.458;2024-02-23T05:19:24;13.70;;;7.83;;
23418;SDS011;11882;42.522;27.458;2024-02-23T05:21:51;11.80;;;8.23;;
23418;SDS011;11882;42.522;27.458;2024-02-23T05:24:18;14.13;;;9.70;;
23418;SDS011;11882;42.522;27.458;2024-02-23T05:26:46;13.90;;;9.17;;
23418;SDS011;11882;42.522;27.458;2024-02-23T05:29:13;11.43;;;9.43;;
23418;SDS011;11882;42.522;27.458;2024-02-23T05:31:47;13.30;;;10.33;;
23418;SDS011;11882;42.522;27.458;2024-02-23T05:34:15;14.33;;;9.53;;
23418;SDS011;11882;42.522;27.458;2024-02-23T05:36:43;17.50;;;11.23;;
23418;SDS011;11882;42.522;27.458;2024-02-23T05:39:11;15.93;;;10.33;;
23418;SDS011;11882;42.522;27.458;2024-02-23T05:41:38;17.37;;;11.23;;
23418;SDS011;11882;42.522;27.458;2024-02-23T05:44:05;16.33;;;10.73;;
23418;SDS011;11882;42.522;27.458;2024-02-23T05:46:32;16.70;;;9.57;;
23418;SDS011;11882;42.522;27.458;2024-02-23T05:49:02;13.80;;;10.03;;
23418;SDS011;11882;42.522;27.458;2024-02-23T05:51:30;15.67;;;10.93;;
23418;SDS011;11882;42.522;27.458;2024-02-23T05:53:57;15.13;;;10.27;;
23418;SDS011;11882;42.522;27.458;2024-02-23T05:56:25;18.60;;;10.67;;
23418;SDS011;11882;42.522;27.458;2024-02-23T05:58:52;15.67;;;10.40;;
23418;SDS011;11882;42.522;27.458;2024-02-23T06:01:22;18.27;;;11.20;;
23418;SDS011;11882;42.522;27.458;2024-02-23T06:03:49;18.60;;;12.90;;
23418;SDS011;11882;42.522;27.458;2024-02-23T06:06:20;17.80;;;11.70;;
23418;SDS011;11882;42.522;27.458;2024-02-23T06:08:47;13.50;;;10.77;;
23418;SDS011;11882;42.522;27.458;2024-02-23T06:11:15;15.80;;;10.20;;
23418;SDS011;11882;42.522;27.458;2024-02-23T06:13:42;15.07;;;10.33;;
23418;SDS011;11882;42.522;27.458;2024-02-23T06:16:09;12.20;;;8.97;;
23418;SDS011;11882;42.522;27.458;2024-02-23T06:18:38;15.03;;;8.90;;
23418;SDS011;11882;42.522;27.458;2024-02-23T06:21:13;13.13;;;9.13;;
23418;SDS011;11882;42.522;27.458;2024-02-23T06:23:42;13.10;;;7.93;;
23418;SDS011;11882;42.522;27.458;2024-02-23T06:26:10;11.93;;;8.33;;
23418;SDS011;11882;42.522;27.458;2024-02-23T06:28:38;9.23;;;7.57;;
23418;SDS011;11882;42.522;27.458;2024-02-23T06:31:06;10.83;;;8.20;;
23418;SDS011;11882;42.522;27.458;2024-02-23T06:33:34;11.27;;;8.23;;
23418;SDS011;11882;42.522;27.458;2024-02-23T06:36:01;11.77;;;8.03;;
23418;SDS011;11882;42.522;27.458;2024-02-23T06:38:31;10.53;;;8.60;;
23418;SDS011;11882;42.522;27.458;2024-02-23T06:41:00;9.90;;;8.17;;
23418;SDS011;11882;42.522;27.458;2024-02-23T06:43:27;11.00;;;8.27;;
23418;SDS011;11882;42.522;27.458;2024-02-23T06:45:54;12.83;;;9.40;;
23418;SDS011;11882;42.522;27.458;2024-02-23T06:48:22;10.90;;;8.43;;
23418;SDS011;11882;42.522;27.458;2024-02-23T06:50:51;9.67;;;7.50;;
23418;SDS011;11882;42.522;27.458;2024-02-23T06:53:18;12.77;;;8.60;;
23418;SDS011;11882;42.522;27.458;2024-02-23T06:55:45;12.33;;;8.80;;
23418;SDS011;11882;42.522;27.458;2024-02-23T06:58:14;8.97;;;7.63;;
23418;SDS011;11882;42.522;27.458;2024-02-23T07:00:42;10.87;;;8.63;;
23418;SDS011;11882;42.522;27.458;2024-02-23T07:03:09;15.47;;;10.27;;
23418;SDS011;11882;42.522;27.458;2024-02-23T07:05:36;12.23;;;8.87;;
23418;SDS011;11882;42.522;27.458;2024-02-23T07:08:04;12.30;;;9.40;;
23418;SDS011;11882;42.522;27.458;2024-02-23T07:10:31;14.80;;;12.20;;
23418;SDS011;11882;42.522;27.458;2024-02-23T07:12:59;15.37;;;12.50;;
23418;SDS011;11882;42.522;27.458;2024-02-23T07:15:27;17.07;;;13.10;;
23418;SDS011;11882;42.522;27.458;2024-02-23T07:17:55;21.47;;;14.63;;
23418;SDS011;11882;42.522;27.458;2024-02-23T07:20:22;16.13;;;12.73;;
23418;SDS011;11882;42.522;27.458;2024-02-23T07:22:50;19.30;;;13.00;;
23418;SDS011;11882;42.522;27.458;2024-02-23T07:25:17;14.37;;;11.57;;
23418;SDS011;11882;42.522;27.458;2024-02-23T07:27:45;15.87;;;12.13;;
23418;SDS011;11882;42.522;27.458;2024-02-23T07:30:14;15.17;;;11.50;;
23418;SDS011;11882;42.522;27.458;2024-02-23T07:32:43;15.37;;;11.23;;
23418;SDS011;11882;42.522;27.458;2024-02-23T07:35:11;13.83;;;11.50;;
23418;SDS011;11882;42.522;27.458;2024-02-23T07:37:39;17.33;;;12.93;;
23418;SDS011;11882;42.522;27.458;2024-02-23T07:40:06;16.03;;;11.47;;
23418;SDS011;11882;42.522;27.458;2024-02-23T07:42:34;14.30;;;12.27;;
23418;SDS011;11882;42.522;27.458;2024-02-23T07:45:02;12.87;;;11.33;;
23418;SDS011;11882;42.522;27.458;2024-02-23T07:47:29;13.87;;;11.43;;
23418;SDS011;11882;42.522;27.458;2024-02-23T07:49:58;16.07;;;11.07;;
23418;SDS011;11882;42.522;27.458;2024-02-23T07:52:25;11.67;;;9.90;;
23418;SDS011;11882;42.522;27.458;2024-02-23T07:54:53;13.33;;;10.37;;
23418;SDS011;11882;42.522;27.458;2024-02-23T07:57:22;14.47;;;10.00;;
23418;SDS011;11882;42.522;27.458;2024-02-23T07:59:49;15.13;;;11.10;;
23418;SDS011;11882;42.522;27.458;2024-02-23T08:02:16;11.87;;;9.57;;
23418;SDS011;11882;42.522;27.458;2024-02-23T08:04:44;13.57;;;9.33;;
23418;SDS011;11882;42.522;27.458;2024-02-23T08:07:14;11.30;;;8.90;;
23418;SDS011;11882;42.522;27.458;2024-02-23T08:09:41;15.13;;;10.97;;
23418;SDS011;11882;42.522;27.458;2024-02-23T08:12:08;12.37;;;10.53;;
23418;SDS011;11882;42.522;27.458;2024-02-23T08:14:36;24.07;;;11.63;;
23418;SDS011;11882;42.522;27.458;2024-02-23T08:17:03;15.13;;;10.40;;
23418;SDS011;11882;42.522;27.458;2024-02-23T08:19:31;16.20;;;9.97;;
23418;SDS011;11882;42.522;27.458;2024-02-23T08:21:58;10.40;;;8.50;;
23418;SDS011;11882;42.522;27.458;2024-02-23T08:24:26;10.73;;;8.27;;
23418;SDS011;11882;42.522;27.458;2024-02-23T08:26:53;11.70;;;8.20;;
23418;SDS011;11882;42.522;27.458;2024-02-23T08:29:21;10.67;;;7.47;;
23418;SDS011;11882;42.522;27.458;2024-02-23T08:31:48;8.90;;;7.10;;
23418;SDS011;11882;42.522;27.458;2024-02-23T08:34:15;13.63;;;8.07;;
23418;SDS011;11882;42.522;27.458;2024-02-23T08:36:42;8.70;;;7.20;;
23418;SDS011;11882;42.522;27.458;2024-02-23T08:39:10;12.30;;;7.50;;
23418;SDS011;11882;42.522;27.458;2024-02-23T08:41:39;11.57;;;7.23;;
23418;SDS011;11882;42.522;27.458;2024-02-23T08:44:06;8.60;;;6.03;;
23418;SDS011;11882;42.522;27.458;2024-02-23T08:46:33;9.53;;;7.17;;
23418;SDS011;11882;42.522;27.458;2024-02-23T08:49:04;8.53;;;6.97;;
23418;SDS011;11882;42.522;27.458;2024-02-23T08:51:31;10.03;;;7.57;;
23418;SDS011;11882;42.522;27.458;2024-02-23T08:53:58;9.33;;;7.67;;
23418;SDS011;11882;42.522;27.458;2024-02-23T08:56:29;11.40;;;7.70;;
23418;SDS011;11882;42.522;27.458;2024-02-23T08:58:58;9.77;;;6.53;;
23418;SDS011;11882;42.522;27.458;2024-02-23T09:01:25;8.23;;;6.90;;
23418;SDS011;11882;42.522;27.458;2024-02-23T09:03:52;9.93;;;7.03;;
23418;SDS011;11882;42.522;27.458;2024-02-23T09:06:20;7.90;;;6.40;;
23418;SDS011;11882;42.522;27.458;2024-02-23T09:08:47;9.80;;;6.87;;
23418;SDS011;11882;42.522;27.458;2024-02-23T09:11:14;8.53;;;6.73;;
23418;SDS011;11882;42.522;27.458;2024-02-23T09:13:41;10.17;;;6.67;;
23418;SDS011;11882;42.522;27.458;2024-02-23T09:16:10;13.17;;;7.33;;
23418;SDS011;11882;42.522;27.458;2024-02-23T09:18:37;9.87;;;6.93;;
23418;SDS011;11882;42.522;27.458;2024-02-23T09:21:05;11.07;;;8.67;;
23418;SDS011;11882;42.522;27.458;2024-02-23T09:23:32;12.57;;;9.30;;
23418;SDS011;11882;42.522;27.458;2024-02-23T09:25:59;12.03;;;8.47;;
23418;SDS011;11882;42.522;27.458;2024-02-23T09:28:26;11.40;;;8.10;;
23418;SDS011;11882;42.522;27.458;2024-02-23T09:30:54;17.70;;;10.33;;
23418;SDS011;11882;42.522;27.458;2024-02-23T09:33:22;11.57;;;8.57;;
23418;SDS011;11882;42.522;27.458;2024-02-23T09:35:50;15.00;;;10.57;;
23418;SDS011;11882;42.522;27.458;2024-02-23T09:38:16;17.00;;;10.37;;
23418;SDS011;11882;42.522;27.458;2024-02-23T09:40:43;11.53;;;9.50;;
23418;SDS011;11882;42.522;27.458;2024-02-23T09:43:10;12.13;;;9.27;;
23418;SDS011;11882;42.522;27.458;2024-02-23T09:45:38;10.60;;;7.57;;
23418;SDS011;11882;42.522;27.458;2024-02-23T09:48:06;8.27;;;5.70;;
23418;SDS011;11882;42.522;27.458;2024-02-23T09:50:37;14.00;;;9.90;;
23418;SDS011;11882;42.522;27.458;2024-02-23T09:53:05;21.53;;;10.23;;
23418;SDS011;11882;42.522;27.458;2024-02-23T09:55:37;12.90;;;8.13;;
23418;SDS011;11882;42.522;27.458;2024-02-23T09:58:04;17.73;;;9.47;;
23418;SDS011;11882;42.522;27.458;2024-02-23T10:00:33;9.90;;;8.13;;
23418;SDS011;11882;42.522;27.458;2024-02-23T10:03:03;9.70;;;6.67;;
23418;SDS011;11882;42.522;27.458;2024-02-23T10:05:32;8.67;;;6.20;;
23418;SDS011;11882;42.522;27.458;2024-02-23T10:08:00;9.97;;;5.70;;
23418;SDS011;11882;42.522;27.458;2024-02-23T10:10:29;7.93;;;5.73;;
23418;SDS011;11882;42.522;27.458;2024-02-23T10:12:57;5.20;;;4.53;;
23418;SDS011;11882;42.522;27.458;2024-02-23T10:15:25;7.53;;;5.27;;
23418;SDS011;11882;42.522;27.458;2024-02-23T10:17:52;11.67;;;5.33;;
23418;SDS011;11882;42.522;27.458;2024-02-23T10:20:20;8.00;;;6.30;;
23418;SDS011;11882;42.522;27.458;2024-02-23T10:22:47;11.60;;;6.23;;
23418;SDS011;11882;42.522;27.458;2024-02-23T10:25:16;8.50;;;6.50;;
23418;SDS011;11882;42.522;27.458;2024-02-23T10:27:44;6.83;;;5.30;;
23418;SDS011;11882;42.522;27.458;2024-02-23T10:30:11;7.37;;;5.80;;
23418;SDS011;11882;42.522;27.458;2024-02-23T10:32:40;7.60;;;5.87;;
23418;SDS011;11882;42.522;27.458;2024-02-23T10:35:09;9.20;;;6.87;;
23418;SDS011;11882;42.522;27.458;2024-02-23T10:37:41;7.43;;;5.77;;
23418;SDS011;11882;42.522;27.458;2024-02-23T10:40:09;11.13;;;7.33;;
23418;SDS011;11882;42.522;27.458;2024-02-23T10:42:40;11.13;;;3.90;;
23418;SDS011;11882;42.522;27.458;2024-02-23T10:45:12;5.67;;;3.97;;
23418;SDS011;11882;42.522;27.458;2024-02-23T10:47:42;3.17;;;2.87;;
23418;SDS011;11882;42.522;27.458;2024-02-23T10:50:10;4.60;;;3.00;;
23418;SDS011;11882;42.522;27.458;2024-02-23T10:52:39;6.60;;;4.40;;
23418;SDS011;11882;42.522;27.458;2024-02-23T10:55:09;3.33;;;3.00;;
23418;SDS011;11882;42.522;27.458;2024-02-23T10:57:36;6.50;;;4.27;;
23418;SDS011;11882;42.522;27.458;2024-02-23T11:00:09;6.17;;;3.50;;
23418;SDS011;11882;42.522;27.458;2024-02-23T11:02:38;5.63;;;3.93;;
23418;SDS011;11882;42.522;27.458;2024-02-23T11:05:11;4.03;;;3.37;;
23418;SDS011;11882;42.522;27.458;2024-02-23T11:07:42;5.53;;;3.33;;
23418;SDS011;11882;42.522;27.458;2024-02-23T11:10:14;5.53;;;3.23;;
23418;SDS011;11882;42.522;27.458;2024-02-23T11:12:43;8.40;;;4.20;;
23418;SDS011;11882;42.522;27.458;2024-02-23T11:15:13;8.27;;;4.00;;
23418;SDS011;11882;42.522;27.458;2024-02-23T11:17:53;7.17;;;4.23;;
23418;SDS011;11882;42.522;27.458;2024-02-23T11:20:21;4.67;;;3.93;;
23418;SDS011;11882;42.522;27.458;2024-02-23T11:22:51;5.90;;;3.83;;
23418;SDS011;11882;42.522;27.458;2024-02-23T11:25:19;5.57;;;3.70;;
23418;SDS011;11882;42.522;27.458;2024-02-23T11:27:52;4.60;;;3.87;;
23418;SDS011;11882;42.522;27.458;2024-02-23T11:30:21;4.87;;;3.60;;
23418;SDS011;11882;42.522;27.458;2024-02-23T11:32:49;3.93;;;3.53;;
23418;SDS011;11882;42.522;27.458;2024-02-23T11:35:19;6.07;;;3.53;;
23418;SDS011;11882;42.522;27.458;2024-02-23T11:37:52;5.43;;;3.87;;
23418;SDS011;11882;42.522;27.458;2024-02-23T11:40:24;9.37;;;4.23;;
23418;SDS011;11882;42.522;27.458;2024-02-23T11:42:52;3.90;;;3.50;;
23418;SDS011;11882;42.522;27.458;2024-02-23T11:45:23;5.97;;;3.40;;
23418;SDS011;11882;42.522;27.458;2024-02-23T11:47:50;5.80;;;4.27;;
23418;SDS011;11882;42.522;27.458;2024-02-23T11:50:18;4.87;;;3.90;;
23418;SDS011;11882;42.522;27.458;2024-02-23T11:52:46;10.73;;;7.27;;
23418;SDS011;11882;42.522;27.458;2024-02-23T11:55:16;8.50;;;6.87;;
23418;SDS011;11882;42.522;27.458;2024-02-23T11:57:47;9.57;;;6.80;;
23418;SDS011;11882;42.522;27.458;2024-02-23T12:00:15;8.40;;;6.27;;
23418;SDS011;11882;42.522;27.458;2024-02-23T12:02:44;9.70;;;6.70;;
23418;SDS011;11882;42.522;27.458;2024-02-23T12:05:14;7.43;;;6.03;;
23418;SDS011;11882;42.522;27.458;2024-02-23T12:07:41;9.30;;;7.07;;
23418;SDS011;11882;42.522;27.458;2024-02-23T12:10:08;11.47;;;6.93;;
23418;SDS011;11882;42.522;27.458;2024-02-23T12:12:36;7.57;;;6.07;;
23418;SDS011;11882;42.522;27.458;2024-02-23T12:15:04;7.67;;;5.97;;
23418;SDS011;11882;42.522;27.458;2024-02-23T12:17:35;6.07;;;5.40;;
23418;SDS011;11882;42.522;27.458;2024-02-23T12:20:05;8.47;;;5.57;;
23418;SDS011;11882;42.522;27.458;2024-02-23T12:22:34;9.50;;;6.63;;
23418;SDS011;11882;42.522;27.458;2024-02-23T12:25:01;6.77;;;5.13;;
23418;SDS011;11882;42.522;27.458;2024-02-23T12:27:29;6.83;;;5.57;;
23418;SDS011;11882;42.522;27.458;2024-02-23T12:29:56;6.13;;;5.30;;
23418;SDS011;11882;42.522;27.458;2024-02-23T12:32:25;8.27;;;5.67;;
23418;SDS011;11882;42.522;27.458;2024-02-23T12:34:52;7.63;;;5.67;;
23418;SDS011;11882;42.522;27.458;2024-02-23T12:37:21;7.20;;;5.77;;
23418;SDS011;11882;42.522;27.458;2024-02-23T12:39:48;7.50;;;6.00;;
23418;SDS011;11882;42.522;27.458;2024-02-23T12:42:16;7.87;;;6.13;;
23418;SDS011;11882;42.522;27.458;2024-02-23T12:44:44;9.40;;;5.80;;
23418;SDS011;11882;42.522;27.458;2024-02-23T12:47:12;7.63;;;5.90;;
23418;SDS011;11882;42.522;27.458;2024-02-23T12:49:40;10.30;;;6.33;;
23418;SDS011;11882;42.522;27.458;2024-02-23T12:52:07;7.50;;;6.43;;
23418;SDS011;11882;42.522;27.458;2024-02-23T12:54:35;8.13;;;6.60;;
23418;SDS011;11882;42.522;27.458;2024-02-23T12:57:02;9.73;;;6.50;;
23418;SDS011;11882;42.522;27.458;2024-02-23T12:59:30;9.50;;;7.27;;
23418;SDS011;11882;42.522;27.458;2024-02-23T13:01:57;12.80;;;6.93;;
23418;SDS011;11882;42.522;27.458;2024-02-23T13:04:24;7.83;;;6.00;;
23418;SDS011;11882;42.522;27.458;2024-02-23T13:06:52;9.87;;;7.10;;
23418;SDS011;11882;42.522;27.458;2024-02-23T13:09:19;11.57;;;8.17;;
23418;SDS011;11882;42.522;27.458;2024-02-23T13:11:48;6.67;;;5.67;;
23418;SDS011;11882;42.522;27.458;2024-02-23T13:14:15;9.77;;;5.83;;
23418;SDS011;11882;42.522;27.458;2024-02-23T13:16:43;7.33;;;6.23;;
23418;SDS011;11882;42.522;27.458;2024-02-23T13:19:10;8.07;;;5.83;;
23418;SDS011;11882;42.522;27.458;2024-02-23T13:21:37;7.07;;;5.83;;
23418;SDS011;11882;42.522;27.458;2024-02-23T13:24:04;7.30;;;5.83;;
23418;SDS011;11882;42.522;27.458;2024-02-23T13:26:32;9.00;;;6.63;;
23418;SDS011;11882;42.522;27.458;2024-02-23T13:28:59;8.07;;;5.70;;
23418;SDS011;11882;42.522;27.458;2024-02-23T13:31:26;6.17;;;5.10;;
23418;SDS011;11882;42.522;27.458;2024-02-23T13:33:54;12.53;;;6.00;;
23418;SDS011;11882;42.522;27.458;2024-02-23T13:36:21;7.27;;;5.63;;
23418;SDS011;11882;42.522;27.458;2024-02-23T13:38:48;5.77;;;5.13;;
23418;SDS011;11882;42.522;27.458;2024-02-23T13:41:16;5.90;;;4.57;;
23418;SDS011;11882;42.522;27.458;2024-02-23T13:43:43;7.87;;;5.20;;
23418;SDS011;11882;42.522;27.458;2024-02-23T13:46:13;8.90;;;5.60;;
23418;SDS011;11882;42.522;27.458;2024-02-23T13:48:40;5.70;;;4.63;;
23418;SDS011;11882;42.522;27.458;2024-02-23T13:51:08;6.30;;;5.00;;
23418;SDS011;11882;42.522;27.458;2024-02-23T13:53:35;6.20;;;5.13;;
23418;SDS011;11882;42.522;27.458;2024-02-23T13:56:02;6.67;;;5.37;;
23418;SDS011;11882;42.522;27.458;2024-02-23T13:58:30;8.00;;;5.80;;
23418;SDS011;11882;42.522;27.458;2024-02-23T14:00:57;6.43;;;5.20;;
23418;SDS011;11882;42.522;27.458;2024-02-23T14:03:26;7.53;;;4.53;;
23418;SDS011;11882;42.522;27.458;2024-02-23T14:05:55;8.00;;;4.73;;
23418;SDS011;11882;42.522;27.458;2024-02-23T14:08:23;6.10;;;4.87;;
23418;SDS011;11882;42.522;27.458;2024-02-23T14:10:50;4.77;;;4.23;;
23418;SDS011;11882;42.522;27.458;2024-02-23T14:13:20;8.60;;;5.17;;
23418;SDS011;11882;42.522;27.458;2024-02-23T14:15:47;8.23;;;5.73;;
23418;SDS011;11882;42.522;27.458;2024-02-23T14:18:14;6.83;;;5.00;;
23418;SDS011;11882;42.522;27.458;2024-02-23T14:20:43;5.13;;;3.57;;
23418;SDS011;11882;42.522;27.458;2024-02-23T14:23:10;5.60;;;4.20;;
23418;SDS011;11882;42.522;27.458;2024-02-23T14:25:37;5.77;;;4.87;;
23418;SDS011;11882;42.522;27.458;2024-02-23T14:28:05;5.03;;;4.13;;